Time,TemperatureF,DewpointF,PressureIn,WindDirection,WindDirectionDegrees,WindSpeedMPH,WindSpeedGustMPH,Humidity,HourlyPrecipIn,Conditions,Clouds,dailyrainin,SoftwareType,DateUTC
2013-01-08 00:01:00,29.8,15.2,29.32,West,270,0.0,0.0,54,0.00,,SCT,0.00,WeatherDisplay:10.37,2013-01-08 05:01:00,
2013-01-08 00:02:00,29.8,15.2,29.32,West,270,0.0,0.0,54,0.00,,SCT,0.00,WeatherDisplay:10.37,2013-01-08 05:02:00,
2013-01-08 00:03:00,29.8,15.2,29.32,West,270,0.0,0.0,54,0.00,,SCT,0.00,WeatherDisplay:10.37,2013-01-08 05:03:00,
2013-01-08 00:08:00,29.8,15.6,29.32,West,270,0.0,0.0,55,0.00,,SCT,0.00,WeatherDisplay:10.37,2013-01-08 05:08:00,
2013-01-08 00:13:00,29.7,15.5,29.32,West,270,0.0,0.0,55,0.00,,SCT,0.00,WeatherDisplay:10.37,2013-01-08 05:13:00,
2013-01-08 00:18:00,29.5,15.3,29.32,West,270,0.0,0.0,55,0.00,,SCT,0.00,WeatherDisplay:10.37,2013-01-08 05:18:00,
2013-01-08 00:23:00,29.3,14.7,29.32,West,270,0.0,0.0,54,0.00,,SCT,0.00,WeatherDisplay:10.37,2013-01-08 05:23:00,
2013-01-08 00:28:00,29.5,15.3,29.32,West,270,0.0,0.0,55,0.00,,SCT,0.00,WeatherDisplay:10.37,2013-01-08 05:28:00,
2013-01-08 00:33:00,29.3,15.1,29.32,West,270,0.0,0.0,55,0.00,,SCT,0.00,WeatherDisplay:10.37,2013-01-08 05:33:00,
2013-01-08 00:38:00,29.1,14.5,29.32,West,270,1.1,1.1,54,0.00,,SCT,0.00,WeatherDisplay:10.37,2013-01-08 05:38:00,
2013-01-08 00:43:00,28.9,14.8,29.32,West,270,0.0,0.0,55,0.00,,SCT,0.00,WeatherDisplay:10.37,2013-01-08 05:43:00,
2013-01-08 00:48:00,28.9,14.4,29.32,West,270,0.0,0.0,54,0.00,,SCT,0.00,WeatherDisplay:10.37,2013-01-08 05:48:00,
2013-01-08 00:53:00,29.1,14.9,29.32,West,270,0.0,0.0,55,0.00,,SCT,0.00,WeatherDisplay:10.37,2013-01-08 05:53:00,
2013-01-08 00:58:00,29.1,15.4,29.32,West,270,0.0,0.0,56,0.00,,SCT,0.00,WeatherDisplay:10.37,2013-01-08 05:58:00,
2013-01-08 01:03:00,29.1,15.8,29.29,West,270,0.0,0.0,57,0.00,,SCT,0.00,WeatherDisplay:10.37,2013-01-08 06:03:00,
2013-01-08 01:08:00,28.9,16.0,29.29,West,270,0.0,0.0,58,0.00,,SCT,0.00,WeatherDisplay:10.37,2013-01-08 06:08:00,
2013-01-08 01:13:00,28.9,15.6,29.29,West,270,0.0,0.0,57,0.00,,SCT,0.00,WeatherDisplay:10.37,2013-01-08 06:13:00,
2013-01-08 01:18:00,28.8,15.4,29.35,West,270,0.0,0.0,57,0.00,,SCT,0.00,WeatherDisplay:10.37,2013-01-08 06:18:00,
2013-01-08 01:23:00,28.6,15.3,29.35,West,270,0.0,0.0,57,0.00,,SCT,0.00,WeatherDisplay:10.37,2013-01-08 06:23:00,
2013-01-08 01:28:00,28.6,15.3,29.35,West,270,0.0,0.0,57,0.00,,SCT,0.00,WeatherDisplay:10.37,2013-01-08 06:28:00,
2013-01-08 01:33:00,28.6,15.3,29.32,West,270,0.0,0.0,57,0.00,,SCT,0.00,WeatherDisplay:10.37,2013-01-08 06:33:00,
2013-01-08 01:38:00,28.6,15.3,29.32,West,270,0.0,0.0,57,0.00,,SCT,0.00,WeatherDisplay:10.37,2013-01-08 06:38:00,
2013-01-08 01:43:00,28.6,15.3,29.32,West,270,0.0,0.0,57,0.00,,SCT,0.00,WeatherDisplay:10.37,2013-01-08 06:43:00,
2013-01-08 01:48:00,28.4,15.9,29.32,West,270,0.0,0.0,59,0.00,,SCT,0.00,WeatherDisplay:10.37,2013-01-08 06:48:00,
2013-01-08 01:53:00,28.2,15.3,29.32,West,270,0.0,0.0,58,0.00,,SCT,0.00,WeatherDisplay:10.37,2013-01-08 06:53:00,
2013-01-08 01:58:00,28.4,15.5,29.32,West,270,0.0,0.0,58,0.00,,SCT,0.00,WeatherDisplay:10.37,2013-01-08 06:58:00,
2013-01-08 02:03:00,28.2,15.3,29.35,West,270,0.0,0.0,58,0.00,,SCT,0.00,WeatherDisplay:10.37,2013-01-08 07:03:00,
2013-01-08 02:08:00,28.2,15.3,29.35,West,270,0.0,0.0,58,0.00,,SCT,0.00,WeatherDisplay:10.37,2013-01-08 07:08:00,
2013-01-08 02:13:00,28.2,16.1,29.35,West,270,0.0,0.0,60,0.00,,SCT,0.00,WeatherDisplay:10.37,2013-01-08 07:13:00,
2013-01-08 02:18:00,28.2,16.1,29.35,West,270,0.0,0.0,60,0.00,,SCT,0.00,WeatherDisplay:10.37,2013-01-08 07:18:00,
2013-01-08 02:23:00,28.0,15.9,29.35,West,270,0.0,0.0,60,0.00,,SCT,0.00,WeatherDisplay:10.37,2013-01-08 07:23:00,
2013-01-08 02:28:00,28.0,16.3,29.35,West,270,0.0,0.0,61,0.00,,SCT,0.00,WeatherDisplay:10.37,2013-01-08 07:28:00,
2013-01-08 02:33:00,28.0,16.3,29.32,West,270,0.0,0.0,61,0.00,,SCT,0.00,WeatherDisplay:10.37,2013-01-08 07:33:00,
2013-01-08 02:38:00,28.0,16.3,29.32,West,270,0.0,0.0,61,0.00,,SCT,0.00,WeatherDisplay:10.37,2013-01-08 07:38:00,
2013-01-08 02:43:00,28.0,16.3,29.32,West,270,0.0,0.0,61,0.00,,SCT,0.00,WeatherDisplay:10.37,2013-01-08 07:43:00,
2013-01-08 02:48:00,27.9,16.1,29.29,West,270,0.0,0.0,61,0.00,,SCT,0.00,WeatherDisplay:10.37,2013-01-08 07:48:00,
2013-01-08 02:53:00,27.9,16.1,29.29,West,270,0.0,0.0,61,0.00,,SCT,0.00,WeatherDisplay:10.37,2013-01-08 07:53:00,
2013-01-08 02:58:00,27.9,16.1,29.29,West,270,0.0,0.0,61,0.00,,SCT,0.00,WeatherDisplay:10.37,2013-01-08 07:58:00,
2013-01-08 03:03:00,27.7,16.3,29.35,West,270,0.0,0.0,62,0.00,,SCT,0.00,WeatherDisplay:10.37,2013-01-08 08:03:00,
2013-01-08 03:08:00,27.7,16.3,29.35,West,270,0.0,0.0,62,0.00,,SCT,0.00,WeatherDisplay:10.37,2013-01-08 08:08:00,
2013-01-08 03:13:00,27.5,16.2,29.35,West,270,0.0,0.0,62,0.00,,SCT,0.00,WeatherDisplay:10.37,2013-01-08 08:13:00,
2013-01-08 03:18:00,27.5,16.5,29.32,West,270,0.0,0.0,63,0.00,,SCT,0.00,WeatherDisplay:10.37,2013-01-08 08:18:00,
2013-01-08 03:23:00,27.3,16.4,29.32,West,270,0.0,0.0,63,0.00,,SCT,0.00,WeatherDisplay:10.37,2013-01-08 08:23:00,
2013-01-08 03:28:00,27.3,16.0,29.32,West,270,0.0,0.0,62,0.00,,SCT,0.00,WeatherDisplay:10.37,2013-01-08 08:28:00,
2013-01-08 03:33:00,27.1,15.8,29.32,West,270,0.0,0.0,62,0.00,,SCT,0.00,WeatherDisplay:10.37,2013-01-08 08:33:00,
2013-01-08 03:38:00,27.1,16.2,29.32,West,270,0.0,0.0,63,0.00,,SCT,0.00,WeatherDisplay:10.37,2013-01-08 08:38:00,
2013-01-08 03:43:00,27.1,16.2,29.32,West,270,0.0,0.0,63,0.00,,SCT,0.00,WeatherDisplay:10.37,2013-01-08 08:43:00,
2013-01-08 03:48:00,27.0,16.0,29.32,West,270,0.0,0.0,63,0.00,,SCT,0.00,WeatherDisplay:10.37,2013-01-08 08:48:00,
2013-01-08 03:53:00,27.0,16.0,29.32,West,270,0.0,0.0,63,0.00,,SCT,0.00,WeatherDisplay:10.37,2013-01-08 08:53:00,
2013-01-08 03:58:00,27.0,16.0,29.32,West,270,0.0,0.0,63,0.00,,SCT,0.00,WeatherDisplay:10.37,2013-01-08 08:58:00,
2013-01-08 04:03:00,27.0,16.0,29.32,West,270,0.0,0.0,63,0.00,,SCT,0.00,WeatherDisplay:10.37,2013-01-08 09:03:00,
2013-01-08 04:08:00,27.0,16.4,29.32,West,270,0.0,0.0,64,0.00,,SCT,0.00,WeatherDisplay:10.37,2013-01-08 09:08:00,
2013-01-08 04:13:00,27.0,16.4,29.32,West,270,0.0,0.0,64,0.00,,SCT,0.00,WeatherDisplay:10.37,2013-01-08 09:13:00,
2013-01-08 04:18:00,27.0,16.0,29.32,West,270,0.0,0.0,63,0.00,,SCT,0.00,WeatherDisplay:10.37,2013-01-08 09:18:00,
2013-01-08 04:23:00,27.0,16.4,29.32,West,270,0.0,0.0,64,0.00,,SCT,0.00,WeatherDisplay:10.37,2013-01-08 09:23:00,
2013-01-08 04:28:00,27.1,16.6,29.32,West,270,0.0,0.0,64,0.00,,SCT,0.00,WeatherDisplay:10.37,2013-01-08 09:28:00,
2013-01-08 04:33:00,27.1,16.6,29.32,West,270,0.0,0.0,64,0.00,,SCT,0.00,WeatherDisplay:10.37,2013-01-08 09:33:00,
2013-01-08 04:38:00,27.1,16.9,29.32,West,270,0.0,0.0,65,0.00,,SCT,0.00,WeatherDisplay:10.37,2013-01-08 09:38:00,
2013-01-08 04:43:00,27.1,16.9,29.32,West,270,0.0,0.0,65,0.00,,SCT,0.00,WeatherDisplay:10.37,2013-01-08 09:43:00,
2013-01-08 04:48:00,27.1,16.9,29.32,West,270,0.0,0.0,65,0.00,,SCT,0.00,WeatherDisplay:10.37,2013-01-08 09:48:00,
2013-01-08 04:53:00,27.1,16.9,29.32,West,270,0.0,0.0,65,0.00,,SCT,0.00,WeatherDisplay:10.37,2013-01-08 09:53:00,
2013-01-08 04:58:00,27.3,17.5,29.32,West,270,0.0,0.0,66,0.00,,SCT,0.00,WeatherDisplay:10.37,2013-01-08 09:58:00,
2013-01-08 05:03:00,27.1,17.3,29.32,West,270,0.0,0.0,66,0.00,,SCT,0.00,WeatherDisplay:10.37,2013-01-08 10:03:00,
2013-01-08 05:08:00,27.1,16.6,29.32,West,270,0.0,0.0,64,0.00,,SCT,0.00,WeatherDisplay:10.37,2013-01-08 10:08:00,
2013-01-08 05:13:00,27.1,16.6,29.32,West,270,0.0,0.0,64,0.00,,SCT,0.00,WeatherDisplay:10.37,2013-01-08 10:13:00,
2013-01-08 05:18:00,27.1,16.6,29.32,West,270,0.0,0.0,64,0.00,,SCT,0.00,WeatherDisplay:10.37,2013-01-08 10:18:00,
2013-01-08 05:23:00,27.1,16.2,29.32,West,270,0.0,0.0,63,0.00,,SCT,0.00,WeatherDisplay:10.37,2013-01-08 10:23:00,
2013-01-08 05:28:00,27.5,16.9,29.32,West,270,0.0,0.0,64,0.00,,SCT,0.00,WeatherDisplay:10.37,2013-01-08 10:28:00,
2013-01-08 05:33:00,28.0,18.1,29.32,West,270,0.0,0.0,66,0.00,,SCT,0.00,WeatherDisplay:10.37,2013-01-08 10:33:00,
2013-01-08 05:38:00,28.0,18.1,29.32,West,270,0.0,0.0,66,0.00,,SCT,0.00,WeatherDisplay:10.37,2013-01-08 10:38:00,
2013-01-08 05:43:00,28.0,18.1,29.32,West,270,0.0,0.0,66,0.00,,SCT,0.00,WeatherDisplay:10.37,2013-01-08 10:43:00,
2013-01-08 05:48:00,28.0,18.1,29.32,West,270,0.0,0.0,66,0.00,,SCT,0.00,WeatherDisplay:10.37,2013-01-08 10:48:00,
2013-01-08 05:54:00,28.2,18.7,29.32,West,270,0.0,0.0,67,0.00,,SCT,0.00,WeatherDisplay:10.37,2013-01-08 10:54:00,
2013-01-08 05:59:00,28.4,18.8,29.32,West,270,0.0,0.0,67,0.00,,SCT,0.00,WeatherDisplay:10.37,2013-01-08 10:59:00,
2013-01-08 06:04:00,28.4,18.8,29.32,West,270,0.0,0.0,67,0.00,,SCT,0.00,WeatherDisplay:10.37,2013-01-08 11:04:00,
2013-01-08 06:09:00,28.8,19.5,29.32,West,270,0.0,0.0,68,0.00,,SCT,0.00,WeatherDisplay:10.37,2013-01-08 11:09:00,
2013-01-08 06:14:00,29.1,20.2,29.32,West,270,1.1,1.1,69,0.00,,SCT,0.00,WeatherDisplay:10.37,2013-01-08 11:14:00,
2013-01-08 06:19:00,28.9,19.7,29.32,West,270,0.0,0.0,68,0.00,,SCT,0.00,WeatherDisplay:10.37,2013-01-08 11:19:00,
2013-01-08 06:24:00,28.9,19.7,29.32,West,270,0.0,0.0,68,0.00,,SCT,0.00,WeatherDisplay:10.37,2013-01-08 11:24:00,
2013-01-08 06:29:00,28.9,19.3,29.32,West,270,0.0,0.0,67,0.00,,SCT,0.00,WeatherDisplay:10.37,2013-01-08 11:29:00,
2013-01-08 06:34:00,28.8,18.8,29.32,West,270,0.0,0.0,66,0.00,,SCT,0.00,WeatherDisplay:10.37,2013-01-08 11:34:00,
2013-01-08 06:39:00,28.9,19.3,29.32,West,270,0.0,0.0,67,0.00,,SCT,0.00,WeatherDisplay:10.37,2013-01-08 11:39:00,
2013-01-08 06:44:00,28.9,19.0,29.32,West,270,0.0,0.0,66,0.00,,SCT,0.00,WeatherDisplay:10.37,2013-01-08 11:44:00,
2013-01-08 06:49:00,29.1,19.2,29.29,West,270,0.0,0.0,66,0.00,,SCT,0.00,WeatherDisplay:10.37,2013-01-08 11:49:00,
2013-01-08 06:54:00,28.9,19.0,29.29,West,270,0.0,0.0,66,0.00,,SCT,0.00,WeatherDisplay:10.37,2013-01-08 11:54:00,
2013-01-08 06:59:00,29.3,19.3,29.29,West,270,0.0,0.0,66,0.00,,SCT,0.00,WeatherDisplay:10.37,2013-01-08 11:59:00,
2013-01-08 07:04:00,29.5,19.9,29.32,West,270,1.1,1.1,67,0.00,,SCT,0.00,WeatherDisplay:10.37,2013-01-08 12:04:00,
2013-01-08 07:09:00,29.5,19.5,29.32,West,270,0.0,0.0,66,0.00,,SCT,0.00,WeatherDisplay:10.37,2013-01-08 12:09:00,
2013-01-08 07:14:00,29.5,19.5,29.32,West,270,0.0,0.0,66,0.00,,SCT,0.00,WeatherDisplay:10.37,2013-01-08 12:14:00,
2013-01-08 07:19:00,29.8,20.2,29.32,West,270,1.1,1.1,67,0.00,,SCT,0.00,WeatherDisplay:10.37,2013-01-08 12:19:00,
2013-01-08 07:24:00,30.0,20.4,29.32,West,270,0.0,0.0,67,0.00,,SCT,0.00,WeatherDisplay:10.37,2013-01-08 12:24:00,
2013-01-08 07:29:00,30.2,20.6,29.32,West,270,0.0,0.0,67,0.00,,SCT,0.00,WeatherDisplay:10.37,2013-01-08 12:29:00,
2013-01-08 07:34:00,30.4,20.7,29.32,West,270,0.0,0.0,67,0.00,,SCT,0.00,WeatherDisplay:10.37,2013-01-08 12:34:00,
2013-01-08 07:39:00,30.6,20.9,29.32,West,270,0.0,0.0,67,0.00,,SCT,0.00,WeatherDisplay:10.37,2013-01-08 12:39:00,
2013-01-08 07:44:00,30.6,20.9,29.32,West,270,0.0,0.0,67,0.00,,SCT,0.00,WeatherDisplay:10.37,2013-01-08 12:44:00,
2013-01-08 07:49:00,30.9,21.2,29.32,West,270,0.0,0.0,67,0.00,,SCT,0.00,WeatherDisplay:10.37,2013-01-08 12:49:00,
2013-01-08 07:54:00,31.3,21.6,29.32,West,270,0.0,0.0,67,0.00,,SCT,0.00,WeatherDisplay:10.37,2013-01-08 12:54:00,
2013-01-08 07:59:00,31.5,21.8,29.32,West,270,1.1,0.0,67,0.00,,SCT,0.00,WeatherDisplay:10.37,2013-01-08 12:59:00,
2013-01-08 08:04:00,31.5,21.8,29.35,West,270,0.0,0.0,67,0.00,,SCT,0.00,WeatherDisplay:10.37,2013-01-08 13:04:00,
2013-01-08 08:09:00,31.8,22.1,29.35,West,270,0.0,0.0,67,0.00,,SCT,0.00,WeatherDisplay:10.37,2013-01-08 13:09:00,
2013-01-08 08:14:00,32.4,22.6,29.35,West,270,0.0,0.0,67,0.00,,SCT,0.00,WeatherDisplay:10.37,2013-01-08 13:14:00,
2013-01-08 08:19:00,32.7,23.0,29.35,West,270,0.0,0.0,67,0.00,,SCT,0.00,WeatherDisplay:10.37,2013-01-08 13:19:00,
2013-01-08 08:24:00,32.9,23.1,29.35,WSW,248,2.3,2.3,67,0.00,,SCT,0.00,WeatherDisplay:10.37,2013-01-08 13:24:00,
2013-01-08 08:29:00,33.4,24.0,29.35,WSW,248,0.0,0.0,68,0.00,,SCT,0.00,WeatherDisplay:10.37,2013-01-08 13:29:00,
2013-01-08 08:34:00,33.6,23.8,29.35,WSW,248,0.0,0.0,67,0.00,,SCT,0.00,WeatherDisplay:10.37,2013-01-08 13:34:00,
2013-01-08 08:39:00,34.0,24.2,29.35,WSW,248,0.0,0.0,67,0.00,,SCT,0.00,WeatherDisplay:10.37,2013-01-08 13:39:00,
2013-01-08 08:44:00,34.5,24.7,29.35,WSW,248,0.0,0.0,67,0.00,,SCT,0.00,WeatherDisplay:10.37,2013-01-08 13:44:00,
2013-01-08 08:49:00,34.9,24.7,29.38,WSW,248,0.0,0.0,66,0.00,,SCT,0.00,WeatherDisplay:10.37,2013-01-08 13:49:00,
2013-01-08 08:54:00,35.4,25.2,29.38,WSW,248,0.0,0.0,66,0.00,,SCT,0.00,WeatherDisplay:10.37,2013-01-08 13:54:00,
2013-01-08 08:59:00,35.8,25.2,29.38,WSW,248,1.4,0.0,65,0.00,,SCT,0.00,WeatherDisplay:10.37,2013-01-08 13:59:00,
2013-01-08 09:04:00,36.3,25.7,29.38,WSW,248,1.1,1.1,65,0.00,,SCT,0.00,WeatherDisplay:10.37,2013-01-08 14:04:00,
2013-01-08 09:09:00,36.9,25.8,29.38,WSW,248,0.0,0.0,64,0.00,,SCT,0.00,WeatherDisplay:10.37,2013-01-08 14:09:00,
2013-01-08 09:14:00,37.2,25.8,29.38,WSW,248,0.0,0.0,63,0.00,,SCT,0.00,WeatherDisplay:10.37,2013-01-08 14:14:00,
2013-01-08 09:19:00,37.8,25.9,29.35,WSW,248,0.0,0.0,62,0.00,,SCT,0.00,WeatherDisplay:10.37,2013-01-08 14:19:00,
2013-01-08 09:24:00,38.5,26.2,29.35,WSW,248,0.0,0.0,61,0.00,,SCT,0.00,WeatherDisplay:10.37,2013-01-08 14:24:00,
2013-01-08 09:29:00,39.2,26.9,29.35,WSW,248,1.6,1.6,61,0.00,,SCT,0.00,WeatherDisplay:10.37,2013-01-08 14:29:00,
2013-01-08 09:34:00,39.7,26.6,29.38,WSW,248,1.6,1.6,59,0.00,,SCT,0.00,WeatherDisplay:10.37,2013-01-08 14:34:00,
2013-01-08 09:39:00,40.3,26.2,29.38,WSW,248,1.6,1.6,57,0.00,,SCT,0.00,WeatherDisplay:10.37,2013-01-08 14:39:00,
2013-01-08 09:44:00,40.8,26.3,29.38,WSW,248,0.0,0.0,56,0.00,,SCT,0.00,WeatherDisplay:10.37,2013-01-08 14:44:00,
2013-01-08 09:49:00,41.5,26.6,29.38,WSW,248,1.6,0.0,55,0.00,,SCT,0.00,WeatherDisplay:10.37,2013-01-08 14:49:00,
2013-01-08 09:54:00,42.4,27.0,29.38,WSW,248,2.3,2.3,54,0.00,,SCT,0.00,WeatherDisplay:10.37,2013-01-08 14:54:00,
2013-01-08 09:59:00,43.3,26.9,29.38,WSW,248,1.1,1.1,52,0.00,,SCT,0.00,WeatherDisplay:10.37,2013-01-08 14:59:00,
2013-01-08 10:04:00,44.2,27.2,29.38,WSW,248,2.4,2.4,51,0.00,,SCT,0.00,WeatherDisplay:10.37,2013-01-08 15:04:00,
2013-01-08 10:09:00,45.0,26.4,29.38,WNW,292,2.3,2.3,48,0.00,,SCT,0.00,WeatherDisplay:10.37,2013-01-08 15:09:00,
2013-01-08 10:14:00,45.1,26.6,29.38,WSW,248,1.6,1.6,48,0.00,,SCT,0.00,WeatherDisplay:10.37,2013-01-08 15:14:00,
2013-01-08 10:19:00,45.3,26.3,29.41,SE,135,1.4,0.0,47,0.00,,SCT,0.00,WeatherDisplay:10.37,2013-01-08 15:19:00,
2013-01-08 10:24:00,45.9,26.7,29.41,NNW,338,0.0,0.0,47,0.00,,SCT,0.00,WeatherDisplay:10.37,2013-01-08 15:24:00,
2013-01-08 10:29:00,46.0,25.9,29.41,NE,45,2.4,0.0,45,0.00,,SCT,0.00,WeatherDisplay:10.37,2013-01-08 15:29:00,
2013-01-08 10:34:00,46.2,25.5,29.35,NNW,338,2.3,2.3,44,0.00,,SCT,0.00,WeatherDisplay:10.37,2013-01-08 15:34:00,
2013-01-08 10:39:00,46.6,24.7,29.35,North,0,2.3,2.3,42,0.00,,SCT,0.00,WeatherDisplay:10.37,2013-01-08 15:39:00,
2013-01-08 10:44:00,46.9,25.0,29.35,NNE,22,1.1,1.1,42,0.00,,SCT,0.00,WeatherDisplay:10.37,2013-01-08 15:44:00,
2013-01-08 10:49:00,47.1,24.0,29.38,NW,315,2.3,2.3,40,0.00,,SCT,0.00,WeatherDisplay:10.37,2013-01-08 15:49:00,
2013-01-08 10:54:00,46.9,23.8,29.38,NW,315,1.6,0.0,40,0.00,,SCT,0.00,WeatherDisplay:10.37,2013-01-08 15:54:00,
2013-01-08 10:59:00,46.9,23.8,29.38,North,0,2.3,2.3,40,0.00,,SCT,0.00,WeatherDisplay:10.37,2013-01-08 15:59:00,
2013-01-08 11:04:00,46.9,23.2,29.38,NNW,338,2.3,2.3,39,0.00,,SCT,0.00,WeatherDisplay:10.37,2013-01-08 16:04:00,
2013-01-08 11:09:00,46.9,23.2,29.38,NNW,338,0.0,0.0,39,0.00,,SCT,0.00,WeatherDisplay:10.37,2013-01-08 16:09:00,
2013-01-08 11:14:00,46.9,22.6,29.38,NNW,338,1.4,1.4,38,0.00,,SCT,0.00,WeatherDisplay:10.37,2013-01-08 16:14:00,
2013-01-08 11:19:00,47.1,22.8,29.35,NW,315,2.3,2.3,38,0.00,,SCT,0.00,WeatherDisplay:10.37,2013-01-08 16:19:00,
2013-01-08 11:24:00,47.3,22.9,29.35,North,0,2.3,2.3,38,0.00,,SCT,0.00,WeatherDisplay:10.37,2013-01-08 16:24:00,
2013-01-08 11:29:00,47.3,22.9,29.35,NNE,22,2.3,2.3,38,0.00,,SCT,0.00,WeatherDisplay:10.37,2013-01-08 16:29:00,
2013-01-08 11:34:00,47.5,23.1,29.38,NNW,338,2.3,2.3,38,0.00,,SCT,0.00,WeatherDisplay:10.37,2013-01-08 16:34:00,
2013-01-08 11:39:00,47.7,22.6,29.38,NNW,338,2.4,2.4,37,0.00,,SCT,0.00,WeatherDisplay:10.37,2013-01-08 16:39:00,
2013-01-08 11:44:00,47.8,22.8,29.38,NNE,22,3.5,3.5,37,0.00,,SCT,0.00,WeatherDisplay:10.37,2013-01-08 16:44:00,
2013-01-08 11:49:00,48.0,23.0,29.38,North,0,2.2,2.2,37,0.00,,SCT,0.00,WeatherDisplay:10.37,2013-01-08 16:49:00,
2013-01-08 11:54:00,48.4,23.3,29.38,NNW,338,2.4,2.4,37,0.00,,SCT,0.00,WeatherDisplay:10.37,2013-01-08 16:54:00,
2013-01-08 11:59:00,48.6,23.4,29.38,North,0,2.3,2.3,37,0.00,,SCT,0.00,WeatherDisplay:10.37,2013-01-08 16:59:00,
2013-01-08 12:04:00,49.3,24.1,29.38,NNE,22,3.5,3.5,37,0.00,,SCT,0.00,WeatherDisplay:10.37,2013-01-08 17:04:00,
2013-01-08 12:09:00,49.3,24.1,29.38,ESE,112,1.1,1.1,37,0.00,,SCT,0.00,WeatherDisplay:10.37,2013-01-08 17:09:00,
2013-01-08 12:14:00,49.5,24.2,29.38,North,0,1.1,1.4,37,0.00,,SCT,0.00,WeatherDisplay:10.37,2013-01-08 17:14:00,
2013-01-08 12:19:00,49.8,24.6,29.35,North,0,2.3,2.4,37,0.00,,SCT,0.00,WeatherDisplay:10.37,2013-01-08 17:19:00,
2013-01-08 12:24:00,50.4,24.4,29.35,NE,45,3.5,3.5,36,0.00,,SCT,0.00,WeatherDisplay:10.37,2013-01-08 17:24:00,
2013-01-08 12:29:00,50.5,24.5,29.35,North,0,1.4,1.4,36,0.00,,SCT,0.00,WeatherDisplay:10.37,2013-01-08 17:29:00,
2013-01-08 12:34:00,50.9,24.9,29.35,NW,315,0.0,0.0,36,0.00,,SCT,0.00,WeatherDisplay:10.37,2013-01-08 17:34:00,
2013-01-08 12:39:00,50.7,23.3,29.35,North,0,2.4,2.4,34,0.00,,SCT,0.00,WeatherDisplay:10.37,2013-01-08 17:39:00,
2013-01-08 12:44:00,51.1,23.7,29.35,WNW,292,2.3,2.3,34,0.00,,SCT,0.00,WeatherDisplay:10.37,2013-01-08 17:44:00,
2013-01-08 12:49:00,51.6,24.1,29.32,NE,45,2.3,2.3,34,0.00,,SCT,0.00,WeatherDisplay:10.37,2013-01-08 17:49:00,
2013-01-08 12:54:00,51.6,23.4,29.32,WNW,292,3.5,3.5,33,0.00,,SCT,0.00,WeatherDisplay:10.37,2013-01-08 17:54:00,
2013-01-08 12:59:00,51.8,23.6,29.32,East,90,1.1,1.1,33,0.00,,SCT,0.00,WeatherDisplay:10.37,2013-01-08 17:59:00,
2013-01-08 13:04:00,51.6,23.4,29.32,NNW,338,2.3,2.3,33,0.00,,SCT,0.00,WeatherDisplay:10.37,2013-01-08 18:04:00,
2013-01-08 13:09:00,51.8,22.8,29.32,WNW,292,2.3,2.4,32,0.00,,SCT,0.00,WeatherDisplay:10.37,2013-01-08 18:09:00,
2013-01-08 13:14:00,51.8,22.8,29.32,WNW,292,2.3,2.3,32,0.00,,SCT,0.00,WeatherDisplay:10.37,2013-01-08 18:14:00,
2013-01-08 13:19:00,52.5,22.7,29.32,West,270,2.4,2.4,31,0.00,,SCT,0.00,WeatherDisplay:10.37,2013-01-08 18:19:00,
2013-01-08 13:24:00,52.5,22.7,29.32,NNW,338,2.3,2.3,31,0.00,,SCT,0.00,WeatherDisplay:10.37,2013-01-08 18:24:00,
2013-01-08 13:29:00,52.7,22.9,29.32,West,270,2.3,2.4,31,0.00,,SCT,0.00,WeatherDisplay:10.37,2013-01-08 18:29:00,
2013-01-08 13:34:00,52.3,22.6,29.32,NNE,22,2.3,2.3,31,0.00,,SCT,0.00,WeatherDisplay:10.37,2013-01-08 18:34:00,
2013-01-08 13:39:00,52.2,22.4,29.32,WNW,292,1.4,1.4,31,0.00,,SCT,0.00,WeatherDisplay:10.37,2013-01-08 18:39:00,
2013-01-08 13:44:00,51.8,22.1,29.32,West,270,1.6,1.6,31,0.00,,SCT,0.00,WeatherDisplay:10.37,2013-01-08 18:44:00,
2013-01-08 13:49:00,51.4,21.8,29.29,WNW,292,2.3,2.4,31,0.00,,SCT,0.00,WeatherDisplay:10.37,2013-01-08 18:49:00,
2013-01-08 13:54:00,51.4,21.8,29.29,WNW,292,2.3,2.4,31,0.00,,SCT,0.00,WeatherDisplay:10.37,2013-01-08 18:54:00,
2013-01-08 13:59:00,51.6,22.7,29.29,North,0,2.3,2.3,32,0.00,,SCT,0.00,WeatherDisplay:10.37,2013-01-08 18:59:00,
2013-01-08 14:04:00,52.2,22.4,29.32,WNW,292,2.3,2.3,31,0.00,,SCT,0.00,WeatherDisplay:10.37,2013-01-08 19:04:00,
2013-01-08 14:09:00,52.7,22.9,29.32,SW,225,2.3,2.3,31,0.00,,SCT,0.00,WeatherDisplay:10.37,2013-01-08 19:09:00,
2013-01-08 14:14:00,53.1,23.2,29.32,NW,315,2.4,2.4,31,0.00,,SCT,0.00,WeatherDisplay:10.37,2013-01-08 19:14:00,
2013-01-08 14:19:00,52.5,22.7,29.29,North,0,2.3,2.3,31,0.00,,SCT,0.00,WeatherDisplay:10.37,2013-01-08 19:19:00,
2013-01-08 14:24:00,52.0,22.2,29.29,North,0,1.1,0.0,31,0.00,,SCT,0.00,WeatherDisplay:10.37,2013-01-08 19:24:00,
2013-01-08 14:29:00,52.2,22.4,29.29,North,0,1.4,0.0,31,0.00,,SCT,0.00,WeatherDisplay:10.37,2013-01-08 19:29:00,
2013-01-08 14:34:00,52.9,23.0,29.29,WSW,248,2.3,2.3,31,0.00,,SCT,0.00,WeatherDisplay:10.37,2013-01-08 19:34:00,
2013-01-08 14:39:00,53.2,23.3,29.29,ENE,68,2.3,2.3,31,0.00,,SCT,0.00,WeatherDisplay:10.37,2013-01-08 19:39:00,
2013-01-08 14:44:00,53.4,23.5,29.29,NW,315,1.1,0.0,31,0.00,,SCT,0.00,WeatherDisplay:10.37,2013-01-08 19:44:00,
2013-01-08 14:49:00,54.1,24.1,29.29,North,0,2.3,2.3,31,0.00,,SCT,0.00,WeatherDisplay:10.37,2013-01-08 19:49:00,
2013-01-08 14:54:00,54.3,23.5,29.29,NNW,338,3.5,3.5,30,0.00,,SCT,0.00,WeatherDisplay:10.37,2013-01-08 19:54:00,
2013-01-08 14:59:00,53.4,23.5,29.29,NNE,22,2.3,0.0,31,0.00,,SCT,0.00,WeatherDisplay:10.37,2013-01-08 19:59:00,
2013-01-08 15:04:00,53.6,22.9,29.29,North,0,2.3,2.3,30,0.00,,SCT,0.00,WeatherDisplay:10.37,2013-01-08 20:04:00,
2013-01-08 15:09:00,53.8,23.0,29.29,NW,315,2.3,2.3,30,0.00,,SCT,0.00,WeatherDisplay:10.37,2013-01-08 20:09:00,
2013-01-08 15:14:00,54.1,24.1,29.29,NNE,22,1.1,1.1,31,0.00,,SCT,0.00,WeatherDisplay:10.37,2013-01-08 20:14:00,
2013-01-08 15:19:00,54.0,23.2,29.32,NE,45,2.6,2.6,30,0.00,,SCT,0.00,WeatherDisplay:10.37,2013-01-08 20:19:00,
2013-01-08 15:24:00,54.1,23.3,29.32,WNW,292,2.3,2.3,30,0.00,,SCT,0.00,WeatherDisplay:10.37,2013-01-08 20:24:00,
2013-01-08 15:29:00,54.3,23.5,29.32,NW,315,3.5,3.5,30,0.00,,SCT,0.00,WeatherDisplay:10.37,2013-01-08 20:29:00,
2013-01-08 15:34:00,54.0,23.2,29.32,WNW,292,2.3,2.3,30,0.00,,SCT,0.00,WeatherDisplay:10.37,2013-01-08 20:34:00,
2013-01-08 15:39:00,53.8,23.0,29.32,NNW,338,1.1,1.1,30,0.00,,SCT,0.00,WeatherDisplay:10.37,2013-01-08 20:39:00,
2013-01-08 15:44:00,53.4,23.5,29.32,North,0,1.1,1.1,31,0.00,,SCT,0.00,WeatherDisplay:10.37,2013-01-08 20:44:00,
2013-01-08 15:49:00,53.4,23.5,29.29,NW,315,2.4,2.4,31,0.00,,SCT,0.00,WeatherDisplay:10.37,2013-01-08 20:49:00,
2013-01-08 15:54:00,53.4,23.5,29.29,North,0,2.3,2.3,31,0.00,,SCT,0.00,WeatherDisplay:10.37,2013-01-08 20:54:00,
2013-01-08 15:59:00,53.2,24.1,29.29,North,0,2.3,0.0,32,0.00,,SCT,0.00,WeatherDisplay:10.37,2013-01-08 20:59:00,
2013-01-08 16:04:00,53.1,23.9,29.32,NW,315,0.0,0.0,32,0.00,,SCT,0.00,WeatherDisplay:10.37,2013-01-08 21:04:00,
2013-01-08 16:09:00,53.1,23.9,29.32,WNW,292,2.3,2.3,32,0.00,,SCT,0.00,WeatherDisplay:10.37,2013-01-08 21:09:00,
2013-01-08 16:14:00,52.7,23.6,29.32,North,0,2.3,2.3,32,0.00,,SCT,0.00,WeatherDisplay:10.37,2013-01-08 21:14:00,
2013-01-08 16:19:00,52.7,23.6,29.29,WNW,292,2.3,2.3,32,0.00,,SCT,0.00,WeatherDisplay:10.37,2013-01-08 21:19:00,
2013-01-08 16:24:00,52.3,23.3,29.29,WNW,292,2.3,2.3,32,0.00,,SCT,0.00,WeatherDisplay:10.37,2013-01-08 21:24:00,
2013-01-08 16:29:00,52.2,23.9,29.29,WNW,292,1.1,1.1,33,0.00,,SCT,0.00,WeatherDisplay:10.37,2013-01-08 21:29:00,
2013-01-08 16:34:00,52.2,23.9,29.29,NNW,338,2.3,2.3,33,0.00,,SCT,0.00,WeatherDisplay:10.37,2013-01-08 21:34:00,
2013-01-08 16:39:00,52.0,23.7,29.29,North,0,1.1,1.1,33,0.00,,SCT,0.00,WeatherDisplay:10.37,2013-01-08 21:39:00,
2013-01-08 16:44:00,52.0,23.7,29.29,NNW,338,1.1,1.1,33,0.00,,SCT,0.00,WeatherDisplay:10.37,2013-01-08 21:44:00,
2013-01-08 16:49:00,52.0,24.4,29.29,ENE,68,1.1,1.1,34,0.00,,SCT,0.00,WeatherDisplay:10.37,2013-01-08 21:49:00,
2013-01-08 16:54:00,51.8,24.3,29.29,NNE,22,1.1,0.0,34,0.00,,SCT,0.00,WeatherDisplay:10.37,2013-01-08 21:54:00,
2013-01-08 16:59:00,51.8,24.3,29.29,NE,45,0.0,0.0,34,0.00,,SCT,0.00,WeatherDisplay:10.37,2013-01-08 21:59:00,
2013-01-08 17:04:00,51.6,24.8,29.32,NE,45,0.0,0.0,35,0.00,,SCT,0.00,WeatherDisplay:10.37,2013-01-08 22:04:00,
2013-01-08 17:09:00,51.6,24.8,29.32,NNE,22,0.0,0.0,35,0.00,,SCT,0.00,WeatherDisplay:10.37,2013-01-08 22:09:00,
2013-01-08 17:14:00,51.6,25.5,29.32,NNE,22,1.1,1.4,36,0.00,,SCT,0.00,WeatherDisplay:10.37,2013-01-08 22:14:00,
2013-01-08 17:19:00,51.4,25.3,29.32,NNE,22,0.0,0.0,36,0.00,,SCT,0.00,WeatherDisplay:10.37,2013-01-08 22:19:00,
2013-01-08 17:24:00,51.3,25.2,29.32,NE,45,0.0,0.0,36,0.00,,SCT,0.00,WeatherDisplay:10.37,2013-01-08 22:24:00,
2013-01-08 17:29:00,51.3,25.2,29.32,ENE,68,0.0,0.0,36,0.00,,SCT,0.00,WeatherDisplay:10.37,2013-01-08 22:29:00,
2013-01-08 17:34:00,50.9,24.9,29.32,ENE,68,0.0,0.0,36,0.00,,SCT,0.00,WeatherDisplay:10.37,2013-01-08 22:34:00,
2013-01-08 17:39:00,50.5,24.5,29.32,ENE,68,0.0,0.0,36,0.00,,SCT,0.00,WeatherDisplay:10.37,2013-01-08 22:39:00,
2013-01-08 17:44:00,50.4,24.4,29.32,NNE,22,0.0,0.0,36,0.00,,SCT,0.00,WeatherDisplay:10.37,2013-01-08 22:44:00,
2013-01-08 17:49:00,50.4,24.4,29.32,NNE,22,0.0,0.0,36,0.00,,SCT,0.00,WeatherDisplay:10.37,2013-01-08 22:49:00,
2013-01-08 17:54:00,50.4,24.4,29.32,NNE,22,0.0,0.0,36,0.00,,SCT,0.00,WeatherDisplay:10.37,2013-01-08 22:54:00,
2013-01-08 17:59:00,50.4,24.4,29.32,East,90,0.0,0.0,36,0.00,,SCT,0.00,WeatherDisplay:10.37,2013-01-08 22:59:00,
2013-01-08 18:04:00,50.4,24.4,29.32,East,90,0.0,0.0,36,0.00,,SCT,0.00,WeatherDisplay:10.37,2013-01-08 23:04:00,
2013-01-08 18:09:00,50.4,25.0,29.32,East,90,0.0,0.0,37,0.00,,SCT,0.00,WeatherDisplay:10.37,2013-01-08 23:09:00,
2013-01-08 18:14:00,50.2,24.9,29.32,East,90,0.0,0.0,37,0.00,,SCT,0.00,WeatherDisplay:10.37,2013-01-08 23:14:00,
2013-01-08 18:19:00,50.2,24.9,29.32,East,90,0.0,0.0,37,0.00,,SCT,0.00,WeatherDisplay:10.37,2013-01-08 23:19:00,
2013-01-08 18:24:00,50.0,24.7,29.32,East,90,0.0,0.0,37,0.00,,SCT,0.00,WeatherDisplay:10.37,2013-01-08 23:24:00,
2013-01-08 18:29:00,50.0,24.7,29.32,East,90,0.0,0.0,37,0.00,,SCT,0.00,WeatherDisplay:10.37,2013-01-08 23:29:00,
2013-01-08 18:34:00,49.8,24.6,29.29,South,180,0.0,0.0,37,0.00,,SCT,0.00,WeatherDisplay:10.37,2013-01-08 23:34:00,
2013-01-08 18:39:00,49.8,25.2,29.29,South,180,0.0,0.0,38,0.00,,SCT,0.00,WeatherDisplay:10.37,2013-01-08 23:39:00,
2013-01-08 18:44:00,49.6,25.0,29.29,North,0,2.3,2.3,38,0.00,,SCT,0.00,WeatherDisplay:10.37,2013-01-08 23:44:00,
2013-01-08 18:49:00,49.5,24.9,29.29,NNW,338,1.6,1.6,38,0.00,,SCT,0.00,WeatherDisplay:10.37,2013-01-08 23:49:00,
2013-01-08 18:54:00,49.5,24.9,29.29,South,180,2.3,2.3,38,0.00,,SCT,0.00,WeatherDisplay:10.37,2013-01-08 23:54:00,
2013-01-08 18:59:00,49.5,24.9,29.29,South,180,0.0,0.0,38,0.00,,SCT,0.00,WeatherDisplay:10.37,2013-01-08 23:59:00,
2013-01-08 19:04:00,49.5,24.9,29.32,South,180,0.0,0.0,38,0.00,,SCT,0.00,WeatherDisplay:10.37,2013-01-09 00:04:00,
2013-01-08 19:09:00,49.1,24.6,29.32,South,180,0.0,0.0,38,0.00,,SCT,0.00,WeatherDisplay:10.37,2013-01-09 00:09:00,
2013-01-08 19:14:00,48.9,24.4,29.32,South,180,0.0,0.0,38,0.00,,SCT,0.00,WeatherDisplay:10.37,2013-01-09 00:14:00,
2013-01-08 19:19:00,48.9,24.4,29.32,North,0,0.0,0.0,38,0.00,,SCT,0.00,WeatherDisplay:10.37,2013-01-09 00:19:00,
2013-01-08 19:24:00,48.6,24.1,29.32,North,0,0.0,0.0,38,0.00,,SCT,0.00,WeatherDisplay:10.37,2013-01-09 00:24:00,
2013-01-08 19:29:00,48.2,23.7,29.32,North,0,0.0,0.0,38,0.00,,SCT,0.00,WeatherDisplay:10.37,2013-01-09 00:29:00,
2013-01-08 19:34:00,47.8,24.0,29.32,North,0,0.0,0.0,39,0.00,,SCT,0.00,WeatherDisplay:10.37,2013-01-09 00:34:00,
2013-01-08 19:39:00,47.8,24.0,29.32,North,0,0.0,0.0,39,0.00,,SCT,0.00,WeatherDisplay:10.37,2013-01-09 00:39:00,
2013-01-08 19:44:00,48.0,24.2,29.32,North,0,0.0,0.0,39,0.00,,SCT,0.00,WeatherDisplay:10.37,2013-01-09 00:44:00,
2013-01-08 19:49:00,48.0,24.2,29.32,North,0,0.0,0.0,39,0.00,,SCT,0.00,WeatherDisplay:10.37,2013-01-09 00:49:00,
2013-01-08 19:54:00,48.0,24.8,29.32,North,0,0.0,0.0,40,0.00,,SCT,0.00,WeatherDisplay:10.37,2013-01-09 00:54:00,
2013-01-08 19:59:00,47.8,24.7,29.32,North,0,0.0,0.0,40,0.00,,SCT,0.00,WeatherDisplay:10.37,2013-01-09 00:59:00,
2013-01-08 20:04:00,47.8,24.7,29.32,North,0,0.0,0.0,40,0.00,,SCT,0.00,WeatherDisplay:10.37,2013-01-09 01:04:00,
2013-01-08 20:09:00,47.8,24.7,29.32,North,0,0.0,0.0,40,0.00,,SCT,0.00,WeatherDisplay:10.37,2013-01-09 01:09:00,
2013-01-08 20:14:00,47.8,24.7,29.32,North,0,0.0,0.0,40,0.00,,SCT,0.00,WeatherDisplay:10.37,2013-01-09 01:14:00,
2013-01-08 20:19:00,47.8,24.7,29.29,North,0,0.0,0.0,40,0.00,,SCT,0.00,WeatherDisplay:10.37,2013-01-09 01:19:00,
2013-01-08 20:24:00,48.0,24.8,29.29,North,0,0.0,0.0,40,0.00,,SCT,0.00,WeatherDisplay:10.37,2013-01-09 01:24:00,
2013-01-08 20:29:00,48.2,25.0,29.29,North,0,0.0,0.0,40,0.00,,SCT,0.00,WeatherDisplay:10.37,2013-01-09 01:29:00,
2013-01-08 20:34:00,48.2,25.0,29.32,North,0,0.0,0.0,40,0.00,,SCT,0.00,WeatherDisplay:10.37,2013-01-09 01:34:00,
2013-01-08 20:39:00,48.0,25.4,29.32,North,0,0.0,0.0,41,0.00,,SCT,0.00,WeatherDisplay:10.37,2013-01-09 01:39:00,
2013-01-08 20:44:00,48.0,25.4,29.32,North,0,0.0,0.0,41,0.00,,SCT,0.00,WeatherDisplay:10.37,2013-01-09 01:44:00,
2013-01-08 20:49:00,48.0,25.4,29.32,North,0,0.0,0.0,41,0.00,,SCT,0.00,WeatherDisplay:10.37,2013-01-09 01:49:00,
2013-01-08 20:54:00,48.2,25.6,29.32,WSW,248,0.0,0.0,41,0.00,,SCT,0.00,WeatherDisplay:10.37,2013-01-09 01:54:00,
2013-01-08 20:59:00,48.2,25.6,29.32,WSW,248,0.0,0.0,41,0.00,,SCT,0.00,WeatherDisplay:10.37,2013-01-09 01:59:00,
2013-01-08 21:04:00,48.0,25.4,29.32,WNW,292,0.0,0.0,41,0.00,,SCT,0.00,WeatherDisplay:10.37,2013-01-09 02:04:00,
2013-01-08 21:09:00,48.0,26.0,29.32,WNW,292,0.0,0.0,42,0.00,,SCT,0.00,WeatherDisplay:10.37,2013-01-09 02:09:00,
2013-01-08 21:14:00,47.8,25.8,29.32,WNW,292,0.0,0.0,42,0.00,,SCT,0.00,WeatherDisplay:10.37,2013-01-09 02:14:00,
2013-01-08 21:19:00,48.0,26.0,29.32,WNW,292,0.0,0.0,42,0.00,,SCT,0.00,WeatherDisplay:10.37,2013-01-09 02:19:00,
2013-01-08 21:24:00,48.0,26.0,29.32,WNW,292,0.0,0.0,42,0.00,,SCT,0.00,WeatherDisplay:10.37,2013-01-09 02:24:00,
2013-01-08 21:29:00,48.2,26.2,29.32,WNW,292,0.0,0.0,42,0.00,,SCT,0.00,WeatherDisplay:10.37,2013-01-09 02:29:00,
2013-01-08 21:34:00,48.2,26.2,29.32,WSW,248,0.0,0.0,42,0.00,,SCT,0.00,WeatherDisplay:10.37,2013-01-09 02:34:00,
2013-01-08 21:39:00,48.2,26.2,29.32,WSW,248,0.0,0.0,42,0.00,,SCT,0.00,WeatherDisplay:10.37,2013-01-09 02:39:00,
2013-01-08 21:44:00,48.4,26.9,29.32,WSW,248,0.0,0.0,43,0.00,,SCT,0.00,WeatherDisplay:10.37,2013-01-09 02:44:00,
2013-01-08 21:49:00,48.4,26.9,29.29,SSE,158,0.0,0.0,43,0.00,,SCT,0.00,WeatherDisplay:10.37,2013-01-09 02:49:00,
2013-01-08 21:54:00,48.4,26.9,29.29,SE,135,0.0,0.0,43,0.00,,SCT,0.00,WeatherDisplay:10.37,2013-01-09 02:54:00,
2013-01-08 21:59:00,48.6,27.1,29.29,SSW,202,0.0,0.0,43,0.00,,SCT,0.00,WeatherDisplay:10.37,2013-01-09 02:59:00,
2013-01-08 22:04:00,48.6,27.6,29.32,SSW,202,0.0,0.0,44,0.00,,SCT,0.00,WeatherDisplay:10.37,2013-01-09 03:04:00,
2013-01-08 22:09:00,48.6,27.1,29.32,SSW,202,0.0,0.0,43,0.00,,SCT,0.00,WeatherDisplay:10.37,2013-01-09 03:09:00,
2013-01-08 22:14:00,48.6,27.1,29.32,SSW,202,0.0,0.0,43,0.00,,SCT,0.00,WeatherDisplay:10.37,2013-01-09 03:14:00,
2013-01-08 22:19:00,48.7,27.2,29.32,SSW,202,0.0,0.0,43,0.00,,SCT,0.00,WeatherDisplay:10.37,2013-01-09 03:19:00,
2013-01-08 22:24:00,48.9,26.8,29.32,SSW,202,0.0,0.0,42,0.00,,SCT,0.00,WeatherDisplay:10.37,2013-01-09 03:24:00,
2013-01-08 22:29:00,49.1,27.0,29.32,NE,45,0.0,0.0,42,0.00,,SCT,0.00,WeatherDisplay:10.37,2013-01-09 03:29:00,
2013-01-08 22:34:00,49.1,27.0,29.32,NNE,22,2.3,2.3,42,0.00,,SCT,0.00,WeatherDisplay:10.37,2013-01-09 03:34:00,
2013-01-08 22:39:00,49.3,27.1,29.32,NNE,22,0.0,0.0,42,0.00,,SCT,0.00,WeatherDisplay:10.37,2013-01-09 03:39:00,
2013-01-08 22:44:00,49.3,27.1,29.32,NNE,22,0.0,0.0,42,0.00,,SCT,0.00,WeatherDisplay:10.37,2013-01-09 03:44:00,
2013-01-08 22:49:00,49.3,26.5,29.32,NNE,22,0.0,0.0,41,0.00,,SCT,0.00,WeatherDisplay:10.37,2013-01-09 03:49:00,
2013-01-08 22:54:00,49.3,26.5,29.32,NNE,22,0.0,0.0,41,0.00,,SCT,0.00,WeatherDisplay:10.37,2013-01-09 03:54:00,
2013-01-08 22:59:00,49.3,26.5,29.32,NNE,22,0.0,0.0,41,0.00,,SCT,0.00,WeatherDisplay:10.37,2013-01-09 03:59:00,
2013-01-08 23:04:00,49.3,27.1,29.29,NNE,22,0.0,0.0,42,0.00,,SCT,0.00,WeatherDisplay:10.37,2013-01-09 04:04:00,
2013-01-08 23:09:00,49.3,27.1,29.29,NNE,22,0.0,0.0,42,0.00,,SCT,0.00,WeatherDisplay:10.37,2013-01-09 04:09:00,
2013-01-08 23:14:00,49.3,27.1,29.29,NNE,22,0.0,0.0,42,0.00,,SCT,0.00,WeatherDisplay:10.37,2013-01-09 04:14:00,
2013-01-08 23:19:00,49.3,26.5,29.32,West,270,0.0,0.0,41,0.00,,SCT,0.00,WeatherDisplay:10.37,2013-01-09 04:19:00,
2013-01-08 23:24:00,49.3,27.1,29.32,West,270,1.1,1.1,42,0.00,,SCT,0.00,WeatherDisplay:10.37,2013-01-09 04:24:00,
2013-01-08 23:29:00,49.3,27.1,29.32,WNW,292,0.0,0.0,42,0.00,,SCT,0.00,WeatherDisplay:10.37,2013-01-09 04:29:00,
2013-01-08 23:34:00,49.3,27.1,29.32,WNW,292,0.0,0.0,42,0.00,,SCT,0.00,WeatherDisplay:10.37,2013-01-09 04:34:00,
2013-01-08 23:39:00,49.3,27.1,29.32,WNW,292,0.0,0.0,42,0.00,,SCT,0.00,WeatherDisplay:10.37,2013-01-09 04:39:00,
2013-01-08 23:44:00,49.3,27.1,29.32,WNW,292,0.0,0.0,42,0.00,,SCT,0.00,WeatherDisplay:10.37,2013-01-09 04:44:00,
2013-01-08 23:49:00,49.3,26.5,29.29,WNW,292,0.0,0.0,41,0.00,,SCT,0.00,WeatherDisplay:10.37,2013-01-09 04:49:00,
2013-01-08 23:54:00,49.3,26.5,29.29,WNW,292,0.0,0.0,41,0.00,,SCT,0.00,WeatherDisplay:10.37,2013-01-09 04:54:00,
2013-01-08 23:59:00,49.3,26.5,29.29,WNW,292,0.0,0.0,41,0.00,,SCT,0.00,WeatherDisplay:10.37,2013-01-09 04:59:00,